Time;durP1;ratioP1;P1;durP2;ratioP2;P2;SDS_P1;SDS_P2;PMS_P1;PMS_P2;Temp;Humidity;BMP_temperature;BMP_pressure;BME280_temperature;BME280_humidity;BME280_pressure;Samples;Min_cycle;Max_cycle;Signal;HPM_P1;HPM_P2
2021/04/24 00:00:30;;;;;;;15.52;6.13;;;15.60;47.70;;;;;;5038957;28;20123;-61
2021/04/24 00:02:56;;;;;;;8.43;5.80;;;15.60;47.80;;;;;;5021734;28;20044;-61
2021/04/24 00:05:26;;;;;;;8.85;6.53;;;15.60;47.90;;;;;;5043318;28;20036;-61
2021/04/24 00:07:54;;;;;;;10.80;6.30;;;15.50;47.90;;;;;;5038977;28;20029;-61
2021/04/24 00:10:20;;;;;;;11.43;7.53;;;15.50;48.10;;;;;;5020730;28;20029;-62
2021/04/24 00:12:45;;;;;;;12.98;6.90;;;15.50;48.20;;;;;;5041169;28;20469;-61
2021/04/24 00:15:12;;;;;;;11.25;6.97;;;15.50;48.20;;;;;;5006525;28;20503;-61
2021/04/24 00:17:38;;;;;;;10.55;7.13;;;15.40;48.30;;;;;;5022019;28;20043;-61
2021/04/24 00:20:08;;;;;;;14.20;7.15;;;15.40;48.20;;;;;;5041880;28;20037;-62
2021/04/24 00:22:33;;;;;;;11.77;7.18;;;15.40;48.30;;;;;;5006647;28;20136;-61
2021/04/24 00:24:59;;;;;;;12.52;7.72;;;15.40;48.50;;;;;;5042931;28;20115;-61
2021/04/24 00:27:24;;;;;;;11.15;6.90;;;15.40;48.40;;;;;;5040862;28;20029;-61
2021/04/24 00:29:50;;;;;;;9.98;7.22;;;15.30;48.60;;;;;;5042743;28;20713;-61
2021/04/24 00:32:15;;;;;;;9.13;6.57;;;15.30;48.50;;;;;;5037597;28;20041;-62
2021/04/24 00:34:41;;;;;;;10.27;6.72;;;15.30;48.60;;;;;;5041906;28;20036;-63
2021/04/24 00:37:06;;;;;;;12.18;6.90;;;15.30;48.60;;;;;;5041007;28;20108;-61
2021/04/24 00:39:32;;;;;;;10.88;6.28;;;15.20;48.70;;;;;;5038632;28;20485;-62
2021/04/24 00:41:58;;;;;;;10.55;6.43;;;15.20;48.70;;;;;;5039349;28;20033;-61
2021/04/24 00:44:23;;;;;;;12.02;7.03;;;15.20;48.80;;;;;;5024711;28;20100;-61
2021/04/24 00:46:49;;;;;;;12.75;7.32;;;15.10;48.70;;;;;;5042276;28;20137;-61
2021/04/24 00:49:14;;;;;;;11.05;6.47;;;15.20;48.90;;;;;;5040455;28;20045;-60
2021/04/24 00:51:40;;;;;;;8.55;6.07;;;15.10;48.90;;;;;;5004761;28;20124;-61
2021/04/24 00:54:06;;;;;;;12.27;6.47;;;15.10;49.00;;;;;;5036925;28;20029;-61
2021/04/24 00:56:33;;;;;;;12.02;6.78;;;15.10;49.00;;;;;;5042382;28;20439;-61
2021/04/24 00:58:58;;;;;;;10.38;6.20;;;15.00;49.00;;;;;;5041645;28;20075;-61
2021/04/24 01:01:24;;;;;;;10.77;6.70;;;15.00;49.10;;;;;;5019510;28;20501;-62
2021/04/24 01:03:49;;;;;;;10.88;7.10;;;15.00;49.10;;;;;;5024055;28;20049;-61
2021/04/24 01:06:15;;;;;;;8.50;5.45;;;15.00;49.30;;;;;;5015852;28;20076;-61
2021/04/24 01:08:40;;;;;;;9.90;6.00;;;15.00;49.20;;;;;;5039520;28;20100;-62
2021/04/24 01:11:06;;;;;;;9.20;5.93;;;15.00;49.30;;;;;;5006608;28;20060;-61
2021/04/24 01:13:32;;;;;;;9.98;6.07;;;15.00;49.40;;;;;;5038633;28;20029;-61
2021/04/24 01:15:57;;;;;;;10.60;6.13;;;14.90;49.40;;;;;;5023049;28;20375;-61
2021/04/24 01:18:23;;;;;;;9.00;5.70;;;14.90;49.40;;;;;;5041333;28;20044;-60
2021/04/24 01:20:49;;;;;;;7.80;5.80;;;14.80;49.50;;;;;;5005025;28;20043;-61
2021/04/24 01:23:14;;;;;;;12.13;6.25;;;14.90;49.60;;;;;;5040853;28;20143;-62
2021/04/24 01:25:42;;;;;;;9.38;6.15;;;14.80;49.60;;;;;;5039083;28;20112;-61
2021/04/24 01:28:07;;;;;;;11.57;6.55;;;14.80;49.60;;;;;;5008049;28;20024;-61
2021/04/24 01:30:39;;;;;;;13.63;8.55;;;14.80;49.80;;;;;;5039446;28;20045;-61
2021/04/24 01:33:07;;;;;;;15.70;9.70;;;14.80;49.80;;;;;;5024351;28;20009;-61
2021/04/24 01:35:33;;;;;;;11.57;7.22;;;14.70;49.70;;;;;;5039257;28;20530;-61
2021/04/24 01:37:58;;;;;;;10.82;7.10;;;14.70;49.90;;;;;;5004676;28;20142;-61
2021/04/24 01:40:24;;;;;;;11.75;7.35;;;14.70;49.90;;;;;;5023663;28;20028;-61
2021/04/24 01:42:50;;;;;;;10.55;6.90;;;14.60;49.90;;;;;;5037116;28;20086;-61
2021/04/24 01:45:16;;;;;;;9.10;6.47;;;14.60;50.00;;;;;;5039091;28;20700;-61
2021/04/24 01:47:42;;;;;;;10.07;6.90;;;14.60;50.10;;;;;;5038128;28;20579;-62
2021/04/24 01:50:09;;;;;;;9.35;6.72;;;14.60;50.10;;;;;;5021720;28;20024;-61
2021/04/24 01:52:38;;;;;;;13.65;6.78;;;14.60;50.20;;;;;;5021697;28;20120;-61
2021/04/24 01:55:06;;;;;;;9.50;5.78;;;14.50;50.30;;;;;;5006939;28;20104;-60
2021/04/24 01:57:31;;;;;;;8.77;5.97;;;14.50;50.50;;;;;;5021558;28;20032;-61
2021/04/24 01:59:57;;;;;;;8.80;6.60;;;14.40;50.50;;;;;;5038794;28;20040;-62
2021/04/24 02:02:24;;;;;;;9.63;6.45;;;14.40;50.70;;;;;;5038878;28;20036;-60
2021/04/24 02:04:49;;;;;;;9.38;6.85;;;14.40;50.70;;;;;;5022334;28;20392;-61
2021/04/24 02:07:15;;;;;;;9.68;6.50;;;14.40;50.90;;;;;;5003960;28;20029;-61
2021/04/24 02:09:40;;;;;;;12.88;7.80;;;14.30;50.90;;;;;;5037611;28;20040;-62
2021/04/24 02:12:08;;;;;;;14.05;8.18;;;14.30;50.90;;;;;;5022046;28;20036;-61
2021/04/24 02:14:44;;;;;;;11.95;7.50;;;14.30;50.90;;;;;;5024432;28;20035;-61
2021/04/24 02:17:11;;;;;;;12.27;7.75;;;14.30;51.00;;;;;;5023550;28;20177;-61
2021/04/24 02:19:38;;;;;;;10.55;8.07;;;14.30;51.00;;;;;;5037741;28;20018;-61
2021/04/24 02:22:04;;;;;;;12.90;7.47;;;14.30;51.00;;;;;;5018261;28;21032;-61
2021/04/24 02:24:36;;;;;;;11.23;6.95;;;14.30;51.00;;;;;;5021322;28;20431;-61
2021/04/24 02:27:04;;;;;;;12.57;7.53;;;14.20;51.00;;;;;;5004776;28;20025;-61
2021/04/24 02:29:29;;;;;;;15.48;7.07;;;14.20;51.00;;;;;;5041967;28;20072;-62
2021/04/24 02:31:55;;;;;;;9.13;7.38;;;14.20;51.00;;;;;;5039705;28;20020;-61
2021/04/24 02:34:20;;;;;;;10.98;6.65;;;14.20;51.10;;;;;;5038139;28;20484;-61
2021/04/24 02:36:46;;;;;;;10.13;6.65;;;14.20;51.20;;;;;;4999555;28;20163;-61
2021/04/24 02:39:11;;;;;;;12.82;6.80;;;14.10;51.20;;;;;;5036771;28;20025;-62
2021/04/24 02:41:37;;;;;;;9.40;6.60;;;14.10;51.20;;;;;;5038958;28;20025;-61
2021/04/24 02:44:02;;;;;;;11.25;7.22;;;14.10;51.20;;;;;;5042762;28;20043;-62
2021/04/24 02:46:28;;;;;;;8.90;6.40;;;14.00;51.20;;;;;;5021283;28;20142;-61
2021/04/24 02:48:54;;;;;;;11.65;7.45;;;14.00;51.30;;;;;;5023071;28;20057;-61
2021/04/24 02:51:19;;;;;;;13.55;6.55;;;14.00;51.50;;;;;;5003973;28;20069;-62
2021/04/24 02:53:45;;;;;;;9.43;6.72;;;13.90;51.50;;;;;;5038849;28;20052;-61
2021/04/24 02:56:10;;;;;;;8.30;6.35;;;13.90;51.50;;;;;;5038619;28;20116;-61
2021/04/24 02:58:36;;;;;;;8.55;6.32;;;13.90;51.50;;;;;;5038687;28;20064;-61
2021/04/24 03:01:01;;;;;;;11.02;6.45;;;13.80;51.60;;;;;;5022332;28;20163;-61
2021/04/24 03:03:27;;;;;;;10.48;6.28;;;13.80;51.50;;;;;;5039212;28;20447;-61
2021/04/24 03:05:54;;;;;;;7.70;6.00;;;13.80;51.50;;;;;;5003864;28;20029;-61
2021/04/24 03:08:20;;;;;;;8.65;5.85;;;13.80;51.50;;;;;;5019849;28;20037;-60
2021/04/24 03:10:45;;;;;;;10.02;5.97;;;13.80;51.60;;;;;;5023088;28;20068;-61
2021/04/24 03:13:11;;;;;;;9.52;6.72;;;13.80;51.60;;;;;;5023359;28;20143;-61
2021/04/24 03:15:37;;;;;;;8.95;5.93;;;13.80;51.70;;;;;;5036700;28;20680;-61
2021/04/24 03:18:03;;;;;;;8.48;5.97;;;13.70;51.70;;;;;;5007521;28;20361;-61
2021/04/24 03:20:28;;;;;;;10.82;6.10;;;13.70;51.70;;;;;;4987391;28;20033;-61
2021/04/24 03:22:54;;;;;;;10.40;5.68;;;13.70;51.80;;;;;;5003929;28;20036;-61
2021/04/24 03:25:20;;;;;;;8.18;5.50;;;13.70;51.80;;;;;;5005734;28;20029;-61
2021/04/24 03:27:45;;;;;;;7.22;5.63;;;13.70;51.90;;;;;;5019544;28;20037;-61
2021/04/24 03:30:13;;;;;;;8.48;6.18;;;13.60;52.00;;;;;;5020682;28;20041;-62
2021/04/24 03:32:39;;;;;;;9.32;5.72;;;13.60;52.10;;;;;;5038924;28;20040;-62
2021/04/24 03:35:06;;;;;;;9.40;5.45;;;13.50;52.00;;;;;;5006188;28;20032;-61
2021/04/24 03:37:32;;;;;;;8.88;6.20;;;13.60;52.10;;;;;;5017228;28;20324;-61
2021/04/24 03:39:57;;;;;;;8.18;5.57;;;13.60;52.20;;;;;;5006409;28;20374;-61
2021/04/24 03:42:23;;;;;;;9.02;5.50;;;13.50;52.10;;;;;;5003033;28;20044;-61
2021/04/24 03:44:48;;;;;;;8.02;5.57;;;13.50;52.20;;;;;;5022642;28;20021;-61
2021/04/24 03:47:14;;;;;;;7.18;5.20;;;13.50;52.20;;;;;;5021965;28;20115;-61
2021/04/24 03:49:40;;;;;;;7.88;5.45;;;13.40;52.20;;;;;;5020102;28;20032;-61
2021/04/24 03:52:05;;;;;;;9.38;5.55;;;13.40;52.30;;;;;;5036681;28;20098;-61
2021/04/24 03:54:31;;;;;;;7.03;5.07;;;13.40;52.30;;;;;;5020735;28;20411;-61
2021/04/24 03:56:58;;;;;;;15.27;5.95;;;13.40;52.30;;;;;;5004774;28;20024;-61
2021/04/24 03:59:24;;;;;;;8.10;5.50;;;13.40;52.40;;;;;;5023346;28;20533;-61
2021/04/24 04:01:49;;;;;;;7.88;5.43;;;13.30;52.40;;;;;;5004323;28;20041;-61
2021/04/24 04:04:15;;;;;;;7.22;5.43;;;13.30;52.40;;;;;;5019783;28;20033;-61
2021/04/24 04:06:40;;;;;;;8.48;5.25;;;13.30;52.50;;;;;;5020864;28;20025;-62
2021/04/24 04:09:06;;;;;;;8.35;4.93;;;13.20;52.50;;;;;;5020443;28;20033;-61
2021/04/24 04:11:31;;;;;;;6.88;5.50;;;13.10;52.50;;;;;;5020295;28;20654;-61
2021/04/24 04:13:57;;;;;;;7.03;5.03;;;13.20;52.60;;;;;;5023262;28;20127;-62
2021/04/24 04:16:23;;;;;;;10.07;5.20;;;13.20;52.60;;;;;;5039313;28;20534;-61
2021/04/24 04:18:49;;;;;;;6.35;4.85;;;13.20;52.70;;;;;;5022247;28;20028;-61
2021/04/24 04:21:14;;;;;;;7.22;5.00;;;13.10;52.70;;;;;;5000955;28;20041;-62
2021/04/24 04:23:40;;;;;;;9.10;5.18;;;13.10;52.70;;;;;;5037937;28;20047;-61
2021/04/24 04:26:05;;;;;;;6.78;4.95;;;13.10;52.70;;;;;;5006376;28;20778;-62
2021/04/24 04:28:31;;;;;;;7.43;4.75;;;13.00;52.70;;;;;;5037931;28;20029;-61
2021/04/24 04:30:56;;;;;;;7.55;4.82;;;13.00;52.80;;;;;;5020715;28;20029;-61
2021/04/24 04:33:22;;;;;;;7.00;4.85;;;13.00;52.80;;;;;;5018472;28;20037;-61
2021/04/24 04:35:48;;;;;;;8.75;5.10;;;13.00;52.80;;;;;;5018208;28;20499;-61
2021/04/24 04:38:14;;;;;;;7.72;5.00;;;12.90;52.80;;;;;;5020009;28;20028;-60
2021/04/24 04:40:39;;;;;;;7.80;4.93;;;12.90;52.90;;;;;;5022032;28;20028;-61
2021/04/24 04:43:05;;;;;;;8.93;5.18;;;12.90;53.00;;;;;;5004540;28;20033;-61
2021/04/24 04:45:31;;;;;;;5.88;4.82;;;12.90;53.00;;;;;;4987811;28;20044;-61
2021/04/24 04:47:56;;;;;;;7.80;5.28;;;12.90;53.00;;;;;;4980938;28;20503;-62
2021/04/24 04:50:27;;;;;;;64.72;8.05;;;12.80;52.90;;;;;;4995771;28;20228;-61
2021/04/24 04:52:52;;;;;;;143.38;13.77;;;12.80;53.10;;;;;;4998922;28;20022;-61
2021/04/24 04:55:18;;;;;;;225.40;20.35;;;12.80;53.20;;;;;;4982891;28;20389;-61
2021/04/24 04:57:45;;;;;;;202.05;17.50;;;12.90;53.10;;;;;;4996192;28;20026;-61
2021/04/24 05:00:12;;;;;;;226.90;19.73;;;12.80;53.30;;;;;;4980980;28;20042;-61
2021/04/24 05:02:38;;;;;;;219.15;18.60;;;12.80;53.20;;;;;;4995386;28;20061;-60
2021/04/24 05:05:05;;;;;;;196.10;19.20;;;12.70;53.20;;;;;;4996399;28;20057;-61
2021/04/24 05:07:30;;;;;;;256.92;22.55;;;12.80;53.30;;;;;;4997496;28;20494;-61
2021/04/24 05:09:56;;;;;;;231.07;21.73;;;12.70;53.40;;;;;;4999608;28;20066;-61
2021/04/24 05:12:21;;;;;;;217.10;20.10;;;12.70;53.40;;;;;;4992157;28;20397;-61
2021/04/24 05:14:47;;;;;;;209.63;19.33;;;12.70;53.40;;;;;;4994901;28;20044;-61
2021/04/24 05:17:12;;;;;;;211.18;20.88;;;12.70;53.50;;;;;;4996647;28;20033;-61
2021/04/24 05:19:38;;;;;;;204.77;20.75;;;12.70;53.50;;;;;;4976605;28;20045;-62
2021/04/24 05:22:04;;;;;;;198.38;18.95;;;12.70;53.70;;;;;;4977237;28;20061;-61
2021/04/24 05:24:29;;;;;;;174.65;16.95;;;12.70;53.80;;;;;;4995508;28;20121;-61
2021/04/24 05:26:55;;;;;;;165.88;17.45;;;12.70;53.80;;;;;;4996482;28;20057;-60
2021/04/24 05:29:20;;;;;;;167.00;16.73;;;12.70;54.00;;;;;;4997432;28;20034;-60
2021/04/24 05:31:46;;;;;;;185.88;17.48;;;12.70;53.90;;;;;;4964653;28;20378;-61
2021/04/24 05:34:11;;;;;;;185.13;18.42;;;12.70;53.90;;;;;;4980135;28;20088;-61
2021/04/24 05:36:37;;;;;;;160.63;15.80;;;12.70;53.90;;;;;;4996362;28;20597;-61
2021/04/24 05:39:03;;;;;;;167.50;17.55;;;12.70;53.90;;;;;;4996367;28;20629;-61
2021/04/24 05:41:29;;;;;;;150.00;15.98;;;12.70;53.90;;;;;;4976817;28;20017;-61
2021/04/24 05:43:55;;;;;;;155.15;16.52;;;12.70;53.90;;;;;;4997667;28;20251;-61
2021/04/24 05:46:21;;;;;;;119.72;13.68;;;12.70;53.90;;;;;;4978249;28;20107;-61
2021/04/24 05:48:47;;;;;;;163.90;16.60;;;12.70;54.00;;;;;;4979382;28;20025;-61
2021/04/24 05:51:12;;;;;;;121.10;13.95;;;12.70;54.10;;;;;;4993261;28;20054;-61
2021/04/24 05:53:41;;;;;;;119.07;15.13;;;12.60;54.10;;;;;;4996872;28;20057;-61
2021/04/24 05:56:06;;;;;;;138.20;14.00;;;12.60;54.20;;;;;;4997379;28;20052;-61
2021/04/24 05:58:32;;;;;;;129.35;14.63;;;12.60;54.20;;;;;;4999039;28;20778;-62
2021/04/24 06:00:58;;;;;;;122.20;15.45;;;12.60;54.20;;;;;;4978424;28;20655;-61
2021/04/24 06:03:23;;;;;;;121.93;16.17;;;12.60;54.10;;;;;;4998644;28;20034;-62
2021/04/24 06:05:49;;;;;;;115.90;13.38;;;12.60;54.20;;;;;;4995157;28;20049;-61
2021/04/24 06:08:14;;;;;;;143.73;14.88;;;12.60;54.10;;;;;;4997055;28;20034;-61
2021/04/24 06:10:40;;;;;;;101.82;13.60;;;12.60;54.20;;;;;;4999534;28;20389;-61
2021/04/24 06:13:06;;;;;;;127.82;15.68;;;12.60;54.20;;;;;;4984512;28;20037;-61
2021/04/24 06:15:31;;;;;;;102.78;13.10;;;12.60;54.20;;;;;;4995099;28;20053;-61
2021/04/24 06:17:57;;;;;;;120.05;14.10;;;12.60;54.20;;;;;;4998818;28;20104;-61
2021/04/24 06:20:22;;;;;;;106.53;13.18;;;12.60;54.20;;;;;;5000183;28;20038;-61
2021/04/24 06:22:48;;;;;;;96.47;13.75;;;12.60;54.20;;;;;;4995317;28;20033;-61
2021/04/24 06:25:15;;;;;;;91.50;13.52;;;12.50;54.20;;;;;;5003808;28;20413;-61
2021/04/24 06:27:40;;;;;;;116.57;13.43;;;12.50;54.20;;;;;;4997751;28;20032;-61
2021/04/24 06:30:07;;;;;;;110.00;14.30;;;12.50;54.20;;;;;;5001442;28;21806;-61
2021/04/24 06:32:32;;;;;;;81.75;11.95;;;12.50;54.20;;;;;;4995534;28;20038;-61
2021/04/24 06:34:58;;;;;;;72.10;10.38;;;12.50;54.30;;;;;;5000088;28;20033;-61
2021/04/24 06:37:23;;;;;;;99.15;13.38;;;12.50;54.20;;;;;;4999303;28;20100;-61
2021/04/24 06:39:49;;;;;;;89.03;11.52;;;12.50;54.30;;;;;;5004945;28;20045;-61
2021/04/24 06:42:15;;;;;;;88.32;12.38;;;12.50;54.20;;;;;;5002335;28;20632;-62
2021/04/24 06:44:41;;;;;;;99.47;12.88;;;12.50;54.20;;;;;;5004681;28;20034;-60
2021/04/24 06:47:07;;;;;;;83.53;11.18;;;12.50;54.20;;;;;;5027805;28;20042;-61
2021/04/24 06:49:32;;;;;;;80.13;10.85;;;12.50;54.30;;;;;;5044050;28;20027;-61
2021/04/24 06:51:58;;;;;;;83.55;12.35;;;12.50;54.80;;;;;;5024304;28;20127;-61
2021/04/24 06:54:23;;;;;;;85.35;12.18;;;12.40;54.20;;;;;;5025325;28;20193;-61
2021/04/24 06:56:49;;;;;;;82.88;10.98;;;12.50;54.20;;;;;;5022112;28;20041;-61
2021/04/24 06:59:14;;;;;;;72.30;10.80;;;12.50;54.20;;;;;;5042840;28;20597;-62
2021/04/24 07:01:40;;;;;;;74.93;11.68;;;12.50;54.20;;;;;;5023969;28;20380;-61
2021/04/24 07:04:05;;;;;;;80.25;11.25;;;12.50;54.20;;;;;;5027002;28;20055;-61
2021/04/24 07:06:31;;;;;;;77.78;11.43;;;12.50;54.30;;;;;;5042265;28;20024;-61
2021/04/24 07:08:56;;;;;;;74.00;11.20;;;12.50;54.20;;;;;;5044729;28;20037;-61
2021/04/24 07:11:22;;;;;;;87.82;11.23;;;12.50;54.30;;;;;;5039865;28;20033;-61
2021/04/24 07:13:47;;;;;;;69.25;10.68;;;12.50;54.30;;;;;;5024803;28;20599;-60
2021/04/24 07:16:13;;;;;;;59.60;10.48;;;12.50;54.30;;;;;;5036968;28;20432;-61
2021/04/24 07:18:40;;;;;;;67.57;11.27;;;12.50;54.20;;;;;;5022444;28;20029;-61
2021/04/24 07:21:05;;;;;;;60.97;10.10;;;12.50;54.20;;;;;;5034884;28;20121;-61
2021/04/24 07:23:36;;;;;;;65.32;10.27;;;12.50;54.30;;;;;;5010576;28;20036;-61
2021/04/24 07:26:01;;;;;;;62.53;10.15;;;12.50;54.40;;;;;;5015342;28;20057;-60
2021/04/24 07:28:27;;;;;;;50.55;9.73;;;12.50;54.40;;;;;;5001247;28;20220;-61
2021/04/24 07:30:53;;;;;;;45.70;8.25;;;12.50;54.40;;;;;;5006012;28;20120;-61
2021/04/24 07:33:19;;;;;;;37.97;8.07;;;12.50;54.70;;;;;;5041375;28;20029;-61
2021/04/24 07:35:44;;;;;;;27.35;7.50;;;12.50;54.90;;;;;;5035260;28;20025;-61
2021/04/24 07:38:10;;;;;;;33.13;7.68;;;12.50;54.80;;;;;;5022323;28;20170;-61
2021/04/24 07:40:35;;;;;;;42.88;8.73;;;12.40;54.80;;;;;;5019793;28;20598;-61
2021/04/24 07:43:01;;;;;;;39.42;7.72;;;12.50;54.90;;;;;;5020273;28;20083;-61
2021/04/24 07:45:26;;;;;;;43.28;8.45;;;12.50;55.00;;;;;;5018988;28;20399;-61
2021/04/24 07:47:52;;;;;;;34.42;8.60;;;12.50;55.00;;;;;;5038265;28;20610;-61
2021/04/24 07:50:18;;;;;;;39.10;7.85;;;12.50;55.20;;;;;;5038916;28;20037;-61
2021/04/24 07:52:45;;;;;;;18.38;7.00;;;12.50;55.10;;;;;;5017992;28;20122;-61
2021/04/24 07:55:11;;;;;;;20.63;6.00;;;12.50;55.40;;;;;;5023121;28;20036;-61
2021/04/24 07:57:36;;;;;;;16.00;7.05;;;12.50;55.60;;;;;;5040353;28;20068;-61
2021/04/24 08:00:04;;;;;;;17.40;6.55;;;12.50;55.50;;;;;;5021980;28;20021;-61
2021/04/24 08:02:30;;;;;;;21.42;6.97;;;12.50;55.40;;;;;;5016297;28;20446;-61
2021/04/24 08:04:55;;;;;;;20.17;7.32;;;12.50;55.60;;;;;;5033746;28;20057;-62
2021/04/24 08:07:21;;;;;;;20.48;6.60;;;12.50;55.70;;;;;;5008916;28;20045;-62
2021/04/24 08:09:46;;;;;;;19.83;7.55;;;12.50;55.80;;;;;;5033456;28;20037;-61
2021/04/24 08:12:12;;;;;;;29.58;8.00;;;12.50;55.80;;;;;;5036402;28;20080;-61
2021/04/24 08:14:37;;;;;;;28.17;7.72;;;12.50;55.80;;;;;;5019298;28;20044;-61
2021/04/24 08:17:03;;;;;;;25.77;8.05;;;12.50;55.80;;;;;;5015813;28;20029;-60
2021/04/24 08:19:29;;;;;;;28.75;7.57;;;12.50;56.60;;;;;;5032896;28;20570;-62
2021/04/24 08:21:55;;;;;;;29.23;8.38;;;12.50;56.10;;;;;;5030644;28;20029;-61
2021/04/24 08:24:21;;;;;;;24.50;8.63;;;12.60;56.20;;;;;;5001573;28;20396;-61
2021/04/24 08:26:46;;;;;;;32.22;9.27;;;12.60;56.30;;;;;;5035453;28;20025;-60
2021/04/24 08:29:12;;;;;;;57.38;10.95;;;12.60;56.90;;;;;;5036731;28;20059;-62
2021/04/24 08:31:37;;;;;;;38.42;8.60;;;12.60;56.70;;;;;;5009973;28;20056;-61
2021/04/24 08:34:03;;;;;;;21.75;8.77;;;12.70;57.00;;;;;;5032521;28;20057;-61
2021/04/24 08:36:29;;;;;;;31.42;8.77;;;12.70;57.40;;;;;;5032293;28;20505;-62
2021/04/24 08:38:54;;;;;;;104.57;15.50;;;12.70;57.70;;;;;;5017369;28;20029;-62
2021/04/24 08:41:20;;;;;;;70.20;11.63;;;12.70;57.60;;;;;;5015689;28;20104;-61
2021/04/24 08:43:46;;;;;;;74.35;11.25;;;12.70;57.70;;;;;;5002848;28;20764;-60
2021/04/24 08:46:12;;;;;;;93.55;12.73;;;12.80;57.80;;;;;;5015112;28;20115;-61
2021/04/24 08:48:37;;;;;;;76.68;13.20;;;12.80;57.60;;;;;;5004041;28;20136;-61
2021/04/24 08:51:03;;;;;;;110.40;13.07;;;12.90;57.90;;;;;;5011497;28;20021;-60
2021/04/24 08:53:29;;;;;;;56.45;11.18;;;12.90;58.00;;;;;;5033357;28;20124;-60
2021/04/24 08:55:54;;;;;;;43.95;11.85;;;12.90;57.90;;;;;;5018147;28;20033;-60
2021/04/24 08:58:20;;;;;;;83.57;12.85;;;13.00;58.10;;;;;;5030837;28;20060;-61
2021/04/24 09:00:48;;;;;;;133.95;16.30;;;13.00;58.30;;;;;;5013058;28;20083;-61
2021/04/24 09:03:18;;;;;;;109.13;17.23;;;13.00;58.20;;;;;;5001211;28;20484;-60
2021/04/24 09:05:44;;;;;;;99.15;14.40;;;13.10;58.10;;;;;;4998841;28;20884;-61
2021/04/24 09:08:10;;;;;;;91.22;14.98;;;12.90;58.10;;;;;;5008606;28;20025;-61
2021/04/24 09:10:38;;;;;;;110.90;16.45;;;13.10;58.20;;;;;;5015782;28;20156;-61
2021/04/24 09:13:04;;;;;;;125.45;18.75;;;13.20;58.30;;;;;;5030086;28;20041;-60
2021/04/24 09:15:30;;;;;;;95.82;16.65;;;13.20;58.30;;;;;;5014706;28;20146;-61
2021/04/24 09:18:06;;;;;;;81.10;14.48;;;13.20;58.50;;;;;;5025245;28;20037;-60
2021/04/24 09:20:43;;;;;;;72.00;14.18;;;13.20;58.30;;;;;;5006540;28;20037;-60
2021/04/24 09:23:08;;;;;;;122.88;15.20;;;13.30;58.50;;;;;;5014395;28;20613;-60
2021/04/24 09:25:39;;;;;;;99.95;13.77;;;13.30;58.50;;;;;;5033363;28;20110;-61
2021/04/24 09:28:06;;;;;;;78.20;13.52;;;13.30;58.50;;;;;;5020009;28;20123;-61
2021/04/24 09:30:33;;;;;;;103.57;16.88;;;13.40;58.50;;;;;;5012364;28;20039;-61
2021/04/24 09:33:17;;;;;;;116.28;14.07;;;13.40;58.60;;;;;;5012300;28;20041;-60
2021/04/24 09:35:53;;;;;;;104.25;14.20;;;13.50;58.60;;;;;;5012081;28;20044;-61
2021/04/24 09:38:24;;;;;;;62.65;12.52;;;13.50;58.70;;;;;;5013917;28;20036;-61
2021/04/24 09:41:03;;;;;;;82.80;13.32;;;13.50;58.60;;;;;;5014585;28;20141;-61
2021/04/24 09:43:28;;;;;;;84.20;13.40;;;13.60;58.50;;;;;;5033472;28;20045;-61
2021/04/24 09:45:54;;;;;;;90.30;14.90;;;13.60;58.60;;;;;;5001592;28;20049;-61
2021/04/24 09:48:20;;;;;;;97.95;17.33;;;13.60;58.50;;;;;;5016847;28;20116;-61
2021/04/24 09:50:46;;;;;;;74.57;13.32;;;13.70;58.60;;;;;;5026960;28;20110;-61
2021/04/24 09:53:20;;;;;;;67.82;12.93;;;13.70;58.70;;;;;;5002568;28;20476;-61
2021/04/24 09:55:46;;;;;;;71.35;13.15;;;13.70;58.60;;;;;;5014542;28;20025;-60
2021/04/24 09:58:32;;;;;;;83.03;14.40;;;13.70;58.70;;;;;;5016480;28;20749;-60
2021/04/24 10:00:58;;;;;;;;;;;13.80;58.80;;;;;;5000559;28;20021;-60
2021/04/24 10:03:34;;;;;;;;;;;13.90;58.60;;;;;;5029217;28;20006;-61
2021/04/24 10:06:23;;;;;;;50.10;11.50;;;13.90;58.30;;;;;;5030736;28;19913;-61
2021/04/24 10:09:08;;;;;;;76.45;12.82;;;13.90;58.20;;;;;;5034716;28;20029;-61
2021/04/24 10:11:34;;;;;;;65.18;11.68;;;14.00;58.40;;;;;;5024035;28;20047;-61
2021/04/24 10:13:59;;;;;;;54.53;11.82;;;14.00;58.30;;;;;;5032239;28;20056;-63
2021/04/24 10:16:45;;;;;;;63.10;11.95;;;14.10;58.30;;;;;;5012741;28;20076;-61
2021/04/24 10:19:15;;;;;;;60.95;12.75;;;14.10;58.40;;;;;;5030162;28;20608;-61
2021/04/24 10:21:42;;;;;;;47.45;10.70;;;14.10;58.40;;;;;;5021684;28;20036;-61
2021/04/24 10:24:11;;;;;;;44.47;10.63;;;14.20;58.20;;;;;;5003276;28;20030;-61
2021/04/24 10:26:37;;;;;;;53.72;11.15;;;14.20;58.30;;;;;;5028176;28;20091;-61
2021/04/24 10:29:03;;;;;;;44.83;11.20;;;14.20;58.10;;;;;;5013607;28;20100;-61
2021/04/24 10:31:29;;;;;;;48.15;11.85;;;14.30;58.20;;;;;;5012678;28;20544;-61
2021/04/24 10:34:01;;;;;;;43.10;10.68;;;14.30;58.00;;;;;;5005409;28;20033;-60
2021/04/24 10:36:27;;;;;;;49.83;10.95;;;14.30;58.00;;;;;;5031466;28;20113;-61
2021/04/24 10:38:53;;;;;;;33.63;10.80;;;14.50;58.00;;;;;;5032568;28;20029;-61
2021/04/24 10:41:36;;;;;;;40.17;10.98;;;14.50;58.00;;;;;;5012261;28;20091;-61
2021/04/24 10:44:07;;;;;;;47.72;10.55;;;14.60;57.80;;;;;;5017962;28;20533;-61
2021/04/24 10:46:37;;;;;;;45.35;11.38;;;14.60;58.50;;;;;;5036768;28;20045;-61
2021/04/24 10:49:24;;;;;;;47.25;11.30;;;14.70;58.10;;;;;;5034242;28;20045;-61
2021/04/24 10:52:08;;;;;;;46.05;10.20;;;14.70;58.00;;;;;;5029946;28;21146;-61
2021/04/24 10:54:38;;;;;;;51.05;10.88;;;14.80;57.80;;;;;;4999760;28;20128;-60
2021/04/24 10:57:41;;;;;;;48.03;13.02;;;14.80;57.70;;;;;;4998092;28;20033;-61
2021/04/24 11:00:23;;;;;;;53.83;11.68;;;14.90;57.40;;;;;;5034410;28;20128;-61
2021/04/24 11:02:52;;;;;;;56.60;13.02;;;15.00;57.50;;;;;;5032636;28;20021;-61
2021/04/24 11:05:30;;;;;;;64.65;12.20;;;15.10;57.40;;;;;;5016232;28;20399;-61
2021/04/24 11:08:08;;;;;;;47.60;11.77;;;15.10;57.10;;;;;;5021987;28;20056;-61
2021/04/24 11:10:47;;;;;;;41.72;12.38;;;15.20;56.70;;;;;;5033750;28;20032;-61
2021/04/24 11:13:16;;;;;;;66.03;13.55;;;15.30;56.40;;;;;;5019943;28;20030;-61
2021/04/24 11:15:42;;;;;;;54.38;12.82;;;15.40;56.60;;;;;;5003763;28;20040;-61
2021/04/24 11:18:10;;;;;;;42.78;11.70;;;15.40;56.50;;;;;;5022444;28;20033;-60
2021/04/24 11:20:48;;;;;;;47.22;11.43;;;15.50;56.40;;;;;;5006641;28;20048;-62
2021/04/24 11:23:32;;;;;;;46.85;12.82;;;15.60;56.30;;;;;;5021068;28;20021;-61
2021/04/24 11:26:05;;;;;;;48.15;12.23;;;15.60;55.90;;;;;;5037985;28;20014;-61
2021/04/24 11:28:31;;;;;;;37.50;10.75;;;15.70;55.60;;;;;;5019731;28;20029;-62
2021/04/24 11:30:58;;;;;;;40.85;11.02;;;15.80;55.40;;;;;;5016919;28;20519;-61
2021/04/24 11:33:40;;;;;;;53.83;11.65;;;15.90;55.10;;;;;;5020760;28;20117;-60
2021/04/24 11:41:44;;;;;;;46.10;10.75;;;16.30;55.00;;;;;;5040417;28;20090;-60
2021/04/24 11:44:15;;;;;;;52.33;10.80;;;16.40;54.60;;;;;;5032567;28;20032;-61
2021/04/24 11:46:41;;;;;;;62.38;13.07;;;16.50;53.90;;;;;;5038849;28;20825;-61
2021/04/24 11:49:21;;;;;;;63.20;12.65;;;16.60;54.50;;;;;;5003702;28;20045;-61
2021/04/24 11:51:57;;;;;;;59.00;12.68;;;16.70;54.20;;;;;;5021731;28;20503;-59
2021/04/24 11:54:28;;;;;;;53.13;11.40;;;16.70;53.70;;;;;;5038219;28;20021;-60
2021/04/24 11:56:55;;;;;;;34.58;10.18;;;16.90;53.60;;;;;;5037996;28;20403;-61
2021/04/24 11:59:25;;;;;;;55.67;11.50;;;16.90;52.70;;;;;;5019541;28;20044;-61
2021/04/24 12:01:52;;;;;;;35.00;10.38;;;17.10;52.80;;;;;;5018895;28;20029;-59
2021/04/24 12:04:29;;;;;;;49.45;9.73;;;17.10;52.00;;;;;;5020520;28;20021;-61
2021/04/24 12:07:09;;;;;;;36.17;9.60;;;17.20;51.20;;;;;;5037084;28;20021;-59
2021/04/24 12:09:55;;;;;;;52.30;11.88;;;17.30;50.80;;;;;;5019386;28;20160;-61
2021/04/24 12:12:34;;;;;;;44.40;9.50;;;17.40;51.40;;;;;;5040151;28;20048;-62
2021/04/24 12:15:02;;;;;;;45.67;10.90;;;17.40;50.40;;;;;;5019338;28;20060;-59
2021/04/24 12:17:28;;;;;;;50.88;10.07;;;17.50;48.70;;;;;;5033273;28;20495;-59
2021/04/24 12:19:53;;;;;;;54.42;10.50;;;17.60;50.20;;;;;;5021543;28;20045;-58
2021/04/24 12:22:20;;;;;;;45.05;9.25;;;17.70;50.50;;;;;;5018701;28;20040;-59
2021/04/24 12:24:53;;;;;;;56.92;9.65;;;17.70;50.20;;;;;;5005366;28;20041;-62
2021/04/24 12:27:39;;;;;;;47.03;9.02;;;17.80;49.70;;;;;;5032171;28;20056;-59
2021/04/24 12:30:15;;;;;;;39.72;10.50;;;18.00;49.40;;;;;;4999217;28;20037;-59
2021/04/24 12:32:44;;;;;;;37.67;8.98;;;18.10;49.60;;;;;;5035713;28;20326;-62
2021/04/24 12:35:14;;;;;;;58.28;9.95;;;18.20;49.10;;;;;;5034502;28;20025;-59
2021/04/24 12:37:40;;;;;;;45.90;8.25;;;18.20;49.50;;;;;;5013568;28;20037;-60
2021/04/24 12:40:07;;;;;;;39.03;9.68;;;18.20;49.80;;;;;;5035397;28;20047;-62